sensor_id;sensor_type;location;lat;lon;timestamp;pressure;altitude;pressure_sealevel;temperature;humidity
5703;BME280;2876;51.738;10.050;2023-02-19T00:00:45;99203.44;;;9.52;100.00
5703;BME280;2876;51.738;10.050;2023-02-19T00:06:47;99189.84;;;9.53;100.00
5703;BME280;2876;51.738;10.050;2023-02-19T00:12:49;99173.03;;;9.59;100.00
5703;BME280;2876;51.738;10.050;2023-02-19T00:18:53;99161.00;;;9.83;100.00
5703;BME280;2876;51.738;10.050;2023-02-19T00:24:55;99161.13;;;9.69;100.00
5703;BME280;2876;51.738;10.050;2023-02-19T00:31:11;99157.22;;;9.71;100.00
5703;BME280;2876;51.738;10.050;2023-02-19T00:37:16;99144.41;;;9.60;100.00
5703;BME280;2876;51.738;10.050;2023-02-19T00:43:18;99127.94;;;9.63;100.00
5703;BME280;2876;51.738;10.050;2023-02-19T00:49:21;99129.75;;;9.56;100.00
5703;BME280;2876;51.738;10.050;2023-02-19T00:55:24;99125.88;;;9.58;100.00
5703;BME280;2876;51.738;10.050;2023-02-19T01:01:26;99106.03;;;9.46;100.00
5703;BME280;2876;51.738;10.050;2023-02-19T01:07:28;99111.69;;;9.64;100.00
5703;BME280;2876;51.738;10.050;2023-02-19T01:13:30;99106.09;;;9.66;100.00
5703;BME280;2876;51.738;10.050;2023-02-19T01:19:32;99098.44;;;9.50;100.00
5703;BME280;2876;51.738;10.050;2023-02-19T01:25:40;99091.22;;;9.50;100.00
5703;BME280;2876;51.738;10.050;2023-02-19T01:31:42;99093.53;;;9.60;100.00
5703;BME280;2876;51.738;10.050;2023-02-19T01:37:44;99088.41;;;9.30;100.00
5703;BME280;2876;51.738;10.050;2023-02-19T01:50:09;99053.00;;;9.28;100.00
5703;BME280;2876;51.738;10.050;2023-02-19T01:56:14;99040.06;;;9.32;100.00
5703;BME280;2876;51.738;10.050;2023-02-19T02:02:17;99042.16;;;9.36;100.00
5703;BME280;2876;51.738;10.050;2023-02-19T02:08:19;99041.31;;;9.36;100.00
5703;BME280;2876;51.738;10.050;2023-02-19T02:14:45;99013.84;;;9.21;100.00
5703;BME280;2876;51.738;10.050;2023-02-19T02:21:42;99009.34;;;9.21;100.00
5703;BME280;2876;51.738;10.050;2023-02-19T02:34:52;99006.53;;;9.43;100.00
5703;BME280;2876;51.738;10.050;2023-02-19T02:40:56;99007.31;;;9.30;100.00
5703;BME280;2876;51.738;10.050;2023-02-19T02:46:58;99013.91;;;9.34;100.00
5703;BME280;2876;51.738;10.050;2023-02-19T02:53:06;99021.41;;;9.45;100.00
5703;BME280;2876;51.738;10.050;2023-02-19T02:59:32;99011.50;;;9.46;100.00
5703;BME280;2876;51.738;10.050;2023-02-19T03:05:34;99016.38;;;9.35;100.00
5703;BME280;2876;51.738;10.050;2023-02-19T03:11:52;99013.63;;;9.15;100.00
5703;BME280;2876;51.738;10.050;2023-02-19T03:18:15;99004.63;;;9.30;100.00
5703;BME280;2876;51.738;10.050;2023-02-19T03:24:50;99018.84;;;9.30;100.00
5703;BME280;2876;51.738;10.050;2023-02-19T03:31:17;99011.34;;;9.54;100.00
5703;BME280;2876;51.738;10.050;2023-02-19T03:37:40;99020.78;;;9.50;100.00
5703;BME280;2876;51.738;10.050;2023-02-19T03:44:12;99023.09;;;9.66;100.00
5703;BME280;2876;51.738;10.050;2023-02-19T03:50:46;99025.34;;;9.56;100.00
5703;BME280;2876;51.738;10.050;2023-02-19T03:57:03;99036.69;;;9.64;100.00
5703;BME280;2876;51.738;10.050;2023-02-19T04:03:15;99026.59;;;9.60;100.00
5703;BME280;2876;51.738;10.050;2023-02-19T04:09:21;99035.28;;;9.75;100.00
5703;BME280;2876;51.738;10.050;2023-02-19T04:15:30;99040.22;;;9.72;100.00
5703;BME280;2876;51.738;10.050;2023-02-19T04:21:33;99050.13;;;9.78;100.00
5703;BME280;2876;51.738;10.050;2023-02-19T04:27:38;99053.97;;;9.62;100.00
5703;BME280;2876;51.738;10.050;2023-02-19T04:33:40;99067.78;;;9.59;100.00
5703;BME280;2876;51.738;10.050;2023-02-19T04:39:42;99079.75;;;9.63;100.00
5703;BME280;2876;51.738;10.050;2023-02-19T04:45:44;99083.44;;;9.62;100.00
5703;BME280;2876;51.738;10.050;2023-02-19T04:51:46;99083.41;;;9.55;100.00
5703;BME280;2876;51.738;10.050;2023-02-19T04:57:48;99083.63;;;9.54;100.00
5703;BME280;2876;51.738;10.050;2023-02-19T05:03:50;99090.41;;;9.56;100.00
5703;BME280;2876;51.738;10.050;2023-02-19T05:09:52;99086.47;;;9.52;100.00
5703;BME280;2876;51.738;10.050;2023-02-19T05:16:01;99097.19;;;9.52;100.00
5703;BME280;2876;51.738;10.050;2023-02-19T05:22:04;99095.56;;;9.58;100.00
5703;BME280;2876;51.738;10.050;2023-02-19T05:28:06;99118.44;;;9.54;100.00
5703;BME280;2876;51.738;10.050;2023-02-19T05:34:20;99125.34;;;9.42;100.00
5703;BME280;2876;51.738;10.050;2023-02-19T05:40:22;99130.25;;;9.31;100.00
5703;BME280;2876;51.738;10.050;2023-02-19T05:46:27;99140.06;;;9.24;100.00
5703;BME280;2876;51.738;10.050;2023-02-19T05:52:33;99137.72;;;9.14;100.00
5703;BME280;2876;51.738;10.050;2023-02-19T05:58:35;99154.38;;;9.10;100.00
5703;BME280;2876;51.738;10.050;2023-02-19T06:04:37;99157.50;;;9.13;100.00
5703;BME280;2876;51.738;10.050;2023-02-19T06:10:39;99151.69;;;9.10;100.00
5703;BME280;2876;51.738;10.050;2023-02-19T06:16:42;99155.28;;;9.24;100.00
5703;BME280;2876;51.738;10.050;2023-02-19T06:22:43;99163.53;;;9.22;100.00
5703;BME280;2876;51.738;10.050;2023-02-19T06:28:47;99167.59;;;9.18;100.00
5703;BME280;2876;51.738;10.050;2023-02-19T06:34:49;99226.91;;;8.57;100.00
5703;BME280;2876;51.738;10.050;2023-02-19T06:40:51;99234.44;;;8.03;100.00
5703;BME280;2876;51.738;10.050;2023-02-19T06:46:56;99255.25;;;7.93;100.00
5703;BME280;2876;51.738;10.050;2023-02-19T06:52:58;99273.47;;;7.59;100.00
5703;BME280;2876;51.738;10.050;2023-02-19T06:59:03;99274.91;;;7.47;100.00
5703;BME280;2876;51.738;10.050;2023-02-19T07:05:05;99318.03;;;7.36;100.00
5703;BME280;2876;51.738;10.050;2023-02-19T07:11:07;99316.03;;;7.15;100.00
5703;BME280;2876;51.738;10.050;2023-02-19T07:17:10;99337.06;;;7.33;100.00
5703;BME280;2876;51.738;10.050;2023-02-19T07:23:12;99346.09;;;7.09;100.00
5703;BME280;2876;51.738;10.050;2023-02-19T07:29:14;99366.19;;;6.89;100.00
5703;BME280;2876;51.738;10.050;2023-02-19T07:35:16;99394.91;;;6.78;100.00
5703;BME280;2876;51.738;10.050;2023-02-19T07:41:17;99417.75;;;6.73;100.00
5703;BME280;2876;51.738;10.050;2023-02-19T07:47:19;99426.66;;;6.88;100.00
5703;BME280;2876;51.738;10.050;2023-02-19T07:53:22;99469.19;;;6.81;100.00
5703;BME280;2876;51.738;10.050;2023-02-19T07:59:25;99476.63;;;6.94;100.00
5703;BME280;2876;51.738;10.050;2023-02-19T08:05:30;99487.50;;;6.84;100.00
5703;BME280;2876;51.738;10.050;2023-02-19T08:11:32;99503.16;;;6.88;100.00
5703;BME280;2876;51.738;10.050;2023-02-19T08:17:52;99517.28;;;6.96;100.00
5703;BME280;2876;51.738;10.050;2023-02-19T08:23:54;99527.56;;;7.16;100.00
5703;BME280;2876;51.738;10.050;2023-02-19T08:29:56;99540.31;;;6.81;99.41
5703;BME280;2876;51.738;10.050;2023-02-19T08:36:05;99561.31;;;6.76;99.63
5703;BME280;2876;51.738;10.050;2023-02-19T08:42:08;99568.97;;;6.79;100.00
5703;BME280;2876;51.738;10.050;2023-02-19T08:48:10;99588.78;;;6.84;98.80
5703;BME280;2876;51.738;10.050;2023-02-19T08:54:12;99588.66;;;6.86;98.36
5703;BME280;2876;51.738;10.050;2023-02-19T09:00:15;99596.91;;;7.16;97.91
5703;BME280;2876;51.738;10.050;2023-02-19T09:06:20;99590.53;;;7.25;95.95
5703;BME280;2876;51.738;10.050;2023-02-19T09:12:23;99603.47;;;7.44;95.78
5703;BME280;2876;51.738;10.050;2023-02-19T09:18:25;99617.72;;;7.28;92.14
5703;BME280;2876;51.738;10.050;2023-02-19T09:24:27;99631.03;;;7.28;91.78
5703;BME280;2876;51.738;10.050;2023-02-19T09:30:29;99652.50;;;7.43;93.19
5703;BME280;2876;51.738;10.050;2023-02-19T09:36:31;99662.38;;;7.34;91.98
5703;BME280;2876;51.738;10.050;2023-02-19T09:42:40;99669.16;;;7.53;89.77
5703;BME280;2876;51.738;10.050;2023-02-19T09:48:43;99666.19;;;7.40;89.82
5703;BME280;2876;51.738;10.050;2023-02-19T09:54:46;99684.34;;;7.45;89.71
5703;BME280;2876;51.738;10.050;2023-02-19T10:00:49;99696.19;;;7.98;88.42
5703;BME280;2876;51.738;10.050;2023-02-19T10:06:51;99718.97;;;7.77;88.48
5703;BME280;2876;51.738;10.050;2023-02-19T10:13:09;99735.72;;;7.63;87.77
5703;BME280;2876;51.738;10.050;2023-02-19T10:19:13;99733.03;;;8.10;87.62
5703;BME280;2876;51.738;10.050;2023-02-19T10:25:16;99750.19;;;8.24;86.42
5703;BME280;2876;51.738;10.050;2023-02-19T10:31:22;99759.97;;;8.40;84.95
5703;BME280;2876;51.738;10.050;2023-02-19T10:37:25;99778.84;;;8.78;83.52
5703;BME280;2876;51.738;10.050;2023-02-19T10:43:31;99805.81;;;8.68;83.82
5703;BME280;2876;51.738;10.050;2023-02-19T10:49:38;99801.53;;;8.82;80.96
5703;BME280;2876;51.738;10.050;2023-02-19T10:55:45;99821.16;;;8.97;80.77
5703;BME280;2876;51.738;10.050;2023-02-19T11:01:57;99825.50;;;9.21;80.51
5703;BME280;2876;51.738;10.050;2023-02-19T11:08:00;99839.75;;;10.12;77.95
5703;BME280;2876;51.738;10.050;2023-02-19T11:14:14;99834.19;;;9.99;76.67
5703;BME280;2876;51.738;10.050;2023-02-19T11:20:17;99835.69;;;9.86;74.62
5703;BME280;2876;51.738;10.050;2023-02-19T11:26:24;99826.41;;;9.36;75.24
5703;BME280;2876;51.738;10.050;2023-02-19T11:32:29;99824.50;;;9.83;76.79
5703;BME280;2876;51.738;10.050;2023-02-19T11:38:31;99825.25;;;10.21;75.57
5703;BME280;2876;51.738;10.050;2023-02-19T11:57:50;99845.66;;;11.39;66.30
5703;BME280;2876;51.738;10.050;2023-02-19T12:17:15;99842.75;;;10.61;69.42
5703;BME280;2876;51.738;10.050;2023-02-19T12:23:58;99840.94;;;10.83;67.84
5703;BME280;2876;51.738;10.050;2023-02-19T12:49:27;99865.88;;;10.99;67.67
5703;BME280;2876;51.738;10.050;2023-02-19T12:55:40;99867.81;;;10.39;69.46
5703;BME280;2876;51.738;10.050;2023-02-19T13:08:38;99882.69;;;9.89;72.43
5703;BME280;2876;51.738;10.050;2023-02-19T13:15:01;99892.00;;;9.78;73.38
5703;BME280;2876;51.738;10.050;2023-02-19T13:21:05;99898.41;;;9.31;74.36
5703;BME280;2876;51.738;10.050;2023-02-19T13:27:45;99911.41;;;9.34;74.04
5703;BME280;2876;51.738;10.050;2023-02-19T13:40:59;99897.34;;;10.54;68.40
5703;BME280;2876;51.738;10.050;2023-02-19T13:47:01;99929.44;;;11.28;66.44
5703;BME280;2876;51.738;10.050;2023-02-19T13:59:46;99915.44;;;10.52;66.83
5703;BME280;2876;51.738;10.050;2023-02-19T14:06:09;99921.47;;;10.54;67.28
5703;BME280;2876;51.738;10.050;2023-02-19T14:18:43;99907.03;;;10.02;66.99
5703;BME280;2876;51.738;10.050;2023-02-19T14:24:45;99909.72;;;10.17;66.15
5703;BME280;2876;51.738;10.050;2023-02-19T14:36:58;99904.31;;;10.84;64.99
5703;BME280;2876;51.738;10.050;2023-02-19T14:43:04;99905.28;;;10.77;63.56
5703;BME280;2876;51.738;10.050;2023-02-19T14:49:43;99920.53;;;10.47;63.34
5703;BME280;2876;51.738;10.050;2023-02-19T14:55:47;99929.38;;;9.95;64.43
5703;BME280;2876;51.738;10.050;2023-02-19T15:02:23;99939.31;;;9.40;66.30
5703;BME280;2876;51.738;10.050;2023-02-19T15:08:37;99949.66;;;9.12;69.37
5703;BME280;2876;51.738;10.050;2023-02-19T15:14:40;99933.69;;;9.04;70.19
5703;BME280;2876;51.738;10.050;2023-02-19T15:20:42;99927.88;;;8.92;70.93
5703;BME280;2876;51.738;10.050;2023-02-19T15:26:51;99931.09;;;8.79;71.36
5703;BME280;2876;51.738;10.050;2023-02-19T15:32:59;99922.88;;;8.81;70.53
5703;BME280;2876;51.738;10.050;2023-02-19T15:39:02;99905.94;;;8.57;72.69
5703;BME280;2876;51.738;10.050;2023-02-19T15:45:15;99925.31;;;8.59;73.06
5703;BME280;2876;51.738;10.050;2023-02-19T15:51:28;99916.16;;;8.29;73.99
5703;BME280;2876;51.738;10.050;2023-02-19T15:57:37;99931.56;;;8.11;75.65
5703;BME280;2876;51.738;10.050;2023-02-19T16:03:41;99932.75;;;7.92;76.45
5703;BME280;2876;51.738;10.050;2023-02-19T16:09:43;99934.56;;;7.67;77.80
5703;BME280;2876;51.738;10.050;2023-02-19T16:22:00;99923.00;;;6.75;81.93
5703;BME280;2876;51.738;10.050;2023-02-19T16:28:24;99927.06;;;6.53;82.54
5703;BME280;2876;51.738;10.050;2023-02-19T16:47:04;99969.13;;;5.98;86.29
5703;BME280;2876;51.738;10.050;2023-02-19T16:53:17;99969.44;;;5.95;86.97
5703;BME280;2876;51.738;10.050;2023-02-19T16:59:20;99978.78;;;5.99;87.87
5703;BME280;2876;51.738;10.050;2023-02-19T17:05:24;99976.47;;;5.96;88.40
5703;BME280;2876;51.738;10.050;2023-02-19T17:11:26;99984.63;;;6.20;88.96
5703;BME280;2876;51.738;10.050;2023-02-19T17:17:28;99991.63;;;6.21;88.83
5703;BME280;2876;51.738;10.050;2023-02-19T17:23:30;99999.03;;;6.35;88.71
5703;BME280;2876;51.738;10.050;2023-02-19T17:29:32;100006.91;;;6.37;89.64
5703;BME280;2876;51.738;10.050;2023-02-19T17:35:34;100014.19;;;6.35;90.00
5703;BME280;2876;51.738;10.050;2023-02-19T17:41:36;100006.81;;;6.47;90.30
5703;BME280;2876;51.738;10.050;2023-02-19T17:47:38;100023.81;;;6.54;89.99
5703;BME280;2876;51.738;10.050;2023-02-19T17:53:41;100018.72;;;6.60;90.29
5703;BME280;2876;51.738;10.050;2023-02-19T17:59:43;100010.06;;;6.67;90.16
5703;BME280;2876;51.738;10.050;2023-02-19T18:05:45;99992.47;;;6.74;89.97
5703;BME280;2876;51.738;10.050;2023-02-19T18:11:47;100001.66;;;6.79;90.19
5703;BME280;2876;51.738;10.050;2023-02-19T18:17:49;100001.88;;;6.86;89.79
5703;BME280;2876;51.738;10.050;2023-02-19T18:23:51;100017.41;;;6.91;89.85
5703;BME280;2876;51.738;10.050;2023-02-19T18:29:55;100014.31;;;6.77;89.93
5703;BME280;2876;51.738;10.050;2023-02-19T18:35:57;100019.31;;;6.80;90.41
5703;BME280;2876;51.738;10.050;2023-02-19T18:41:58;100021.09;;;6.72;90.99
5703;BME280;2876;51.738;10.050;2023-02-19T18:48:03;100024.19;;;6.85;90.67
5703;BME280;2876;51.738;10.050;2023-02-19T18:54:05;100028.19;;;6.89;90.79
5703;BME280;2876;51.738;10.050;2023-02-19T19:00:10;100038.72;;;6.91;91.20
5703;BME280;2876;51.738;10.050;2023-02-19T19:06:12;100029.84;;;6.82;91.29
5703;BME280;2876;51.738;10.050;2023-02-19T19:12:14;100031.97;;;6.78;91.93
5703;BME280;2876;51.738;10.050;2023-02-19T19:18:16;100035.69;;;6.85;92.19
5703;BME280;2876;51.738;10.050;2023-02-19T19:24:20;100033.97;;;6.76;92.30
5703;BME280;2876;51.738;10.050;2023-02-19T19:30:23;100045.69;;;6.83;91.41
5703;BME280;2876;51.738;10.050;2023-02-19T19:36:25;100047.41;;;6.93;90.93
5703;BME280;2876;51.738;10.050;2023-02-19T19:42:27;100047.41;;;6.93;90.22
5703;BME280;2876;51.738;10.050;2023-02-19T19:48:29;100044.25;;;6.97;90.58
5703;BME280;2876;51.738;10.050;2023-02-19T19:54:31;100055.41;;;6.93;91.03
5703;BME280;2876;51.738;10.050;2023-02-19T20:00:33;100063.69;;;6.90;91.08
5703;BME280;2876;51.738;10.050;2023-02-19T20:06:35;100065.06;;;6.94;91.32
5703;BME280;2876;51.738;10.050;2023-02-19T20:12:40;100047.41;;;6.93;91.62
5703;BME280;2876;51.738;10.050;2023-02-19T20:18:42;100058.53;;;6.88;92.69
5703;BME280;2876;51.738;10.050;2023-02-19T20:24:52;100063.97;;;6.78;93.48
5703;BME280;2876;51.738;10.050;2023-02-19T20:30:54;100068.66;;;6.84;93.89
5703;BME280;2876;51.738;10.050;2023-02-19T20:36:56;100062.91;;;6.71;94.77
5703;BME280;2876;51.738;10.050;2023-02-19T20:42:58;100069.53;;;6.67;95.34
5703;BME280;2876;51.738;10.050;2023-02-19T20:49:01;100057.31;;;6.56;95.61
5703;BME280;2876;51.738;10.050;2023-02-19T20:55:04;100038.78;;;6.47;96.07
5703;BME280;2876;51.738;10.050;2023-02-19T21:01:06;100052.47;;;6.52;97.40
5703;BME280;2876;51.738;10.050;2023-02-19T21:07:09;100056.88;;;6.43;97.96
5703;BME280;2876;51.738;10.050;2023-02-19T21:13:11;100072.22;;;6.41;98.50
5703;BME280;2876;51.738;10.050;2023-02-19T21:19:13;100065.88;;;6.42;98.33
5703;BME280;2876;51.738;10.050;2023-02-19T21:25:15;100075.91;;;6.48;98.49
5703;BME280;2876;51.738;10.050;2023-02-19T21:31:17;100070.44;;;6.50;98.37
5703;BME280;2876;51.738;10.050;2023-02-19T21:37:19;100068.75;;;6.49;99.14
5703;BME280;2876;51.738;10.050;2023-02-19T21:43:21;100066.91;;;6.49;99.03
5703;BME280;2876;51.738;10.050;2023-02-19T21:49:23;100056.69;;;6.63;98.87
5703;BME280;2876;51.738;10.050;2023-02-19T21:55:26;100054.94;;;6.45;98.68
5703;BME280;2876;51.738;10.050;2023-02-19T22:01:33;100054.41;;;6.42;99.68
5703;BME280;2876;51.738;10.050;2023-02-19T22:07:35;100060.06;;;6.65;98.76
5703;BME280;2876;51.738;10.050;2023-02-19T22:13:37;100074.16;;;6.57;99.24
5703;BME280;2876;51.738;10.050;2023-02-19T22:19:40;100071.00;;;6.61;99.15
5703;BME280;2876;51.738;10.050;2023-02-19T22:25:42;100073.91;;;6.68;99.10
5703;BME280;2876;51.738;10.050;2023-02-19T22:31:44;100055.25;;;6.68;99.86
5703;BME280;2876;51.738;10.050;2023-02-19T22:37:46;100056.69;;;6.63;100.00
5703;BME280;2876;51.738;10.050;2023-02-19T22:43:48;100060.00;;;6.82;100.00
5703;BME280;2876;51.738;10.050;2023-02-19T22:49:50;100071.28;;;6.76;100.00
5703;BME280;2876;51.738;10.050;2023-02-19T22:55:52;100060.25;;;6.71;100.00
5703;BME280;2876;51.738;10.050;2023-02-19T23:01:54;100065.03;;;6.59;100.00
5703;BME280;2876;51.738;10.050;2023-02-19T23:07:56;100054.19;;;6.61;100.00
5703;BME280;2876;51.738;10.050;2023-02-19T23:13:59;100041.34;;;6.56;100.00
5703;BME280;2876;51.738;10.050;2023-02-19T23:20:01;100050.88;;;6.67;100.00
5703;BME280;2876;51.738;10.050;2023-02-19T23:26:03;100056.91;;;6.69;100.00
5703;BME280;2876;51.738;10.050;2023-02-19T23:32:05;100040.94;;;6.69;99.07
5703;BME280;2876;51.738;10.050;2023-02-19T23:38:08;100044.72;;;6.93;96.77
5703;BME280;2876;51.738;10.050;2023-02-19T23:44:10;100023.56;;;6.91;95.77
5703;BME280;2876;51.738;10.050;2023-02-19T23:50:14;100020.66;;;7.10;91.68
5703;BME280;2876;51.738;10.050;2023-02-19T23:56:24;100022.56;;;6.92;91.54
